Terminal Aerodrome Forecast
Issued by NWS

Home | Current Version | Previous Version | Text Only | Print | Product List | Glossary On
Versions: 1 2 3 4 5 6 7 8 9 10 11 12 13 14
000
FTUS44 KMAF 032300
TAFCNM
TAF
KCNM 032325Z 0400/0424 15011KT P6SM SCT100 BKN200
      TEMPO 0400/0404 VRB15G25KT -TSRA BKN040CB
     FM041900 14017G25KT P6SM BKN060=

USA.gov is the U.S. government's official web portal to all federal, state and local government web resources and services.